Spokane, WA

6:54 AM PDT on September 03, 2015 (GMT -0700)
In town | | Change Station
CLOSE
Current Station
Personal Weather Station
Location: Medical Lake, WA
Elevation: 2421 ft
Nearby Weather Stations

Elev 2421 ft 47.58 °N, 117.69 °W | Updated 30 seconds ago

Clear
Clear
43.0 °F
Feels Like 43 °F
N
2.2
Wind Variable Wind from South

Today
High -- | Low -- °F
--% Chance of Precip.
Yesterday
High -- | Low -- °F
Precip. -- in
6:11 AM 7:27 PM
Waning Gibbous, 70% visible
Pressure 29.91 in
Visibility 10.0 miles
Clouds Clear
Windchill 43 °F
Dew Point 36 °F
Humidity 77%
Rainfall 0.00 in
Snow Depth Not available.
UV 0 out of 12
Pollen 7.00 out of 12
Air Quality Not available.
Flu Activity Not available.
METAR KSKA 031258Z AUTO 19005KT 10SM CLR 07/01 A2990 RMK AO2 SLP126 T00660013
Pressure 29.91 in
Visibility 10.0 miles
Clouds Clear
Windchill 43 °F
Dew Point 36 °F
Humidity 77%
Rainfall 0.00 in
Snow Depth Not available.
UV 0 out of 12
Pollen 7.00 out of 12
Air Quality Not available.
Flu Activity Not available.
METAR KSKA 031258Z AUTO 19005KT 10SM CLR 07/01 A2990 RMK AO2 SLP126 T00660013

10-Day Weather Forecast

×

Almanac

Astronomy

Sep. 03, 2015 Rise Set
Actual Time
Civil Twilight
Nautical Twilight
Astronomical Twilight
Moon
Length of Visible Light
Length of Day
Tomorrow will be .
, % of the Moon is Illuminated

Today's Extremes

State Highs State Lows

Community

WunderPhotos

Upload Photos

1,851,952 photos uploaded!

WunderBlogs® & News

Nearby

Air Quality

  Air Quality AQ Index Pollutant
Not available.

Snow Depth

Station Depth Elevation

Earthquake Activity

City Distance Mag. Time & Date
Minimum magnitude displayed is 2.5.

Coastal Water Temperatures

Place Temperature

Stations

Nearby Weather Stations

Station Location Temp. Windchill Dew Point Humidity Wind Precip. Elev Updated Type